createdAt,value
2023-04-23T00:01:12.432Z,74.90
2023-04-23T00:03:43.000Z,75.20
2023-04-23T00:06:13.781Z,75.60
2023-04-23T00:08:42.659Z,75.40
2023-04-23T00:11:11.447Z,75.40
2023-04-23T00:13:39.962Z,75.70
2023-04-23T00:16:10.899Z,75.50
2023-04-23T00:18:39.063Z,75.70
2023-04-23T00:21:08.690Z,75.60
2023-04-23T00:23:39.226Z,75.80
2023-04-23T00:26:07.672Z,76.10
2023-04-23T00:28:35.793Z,76.00
2023-04-23T00:31:03.880Z,76.20
2023-04-23T00:33:32.157Z,76.20
2023-04-23T00:36:00.263Z,76.30
2023-04-23T00:38:28.402Z,76.40
2023-04-23T00:40:57.895Z,76.40
2023-04-23T00:43:25.970Z,76.90
2023-04-23T00:45:54.164Z,76.70
2023-04-23T00:48:23.290Z,76.70
2023-04-23T00:50:58.272Z,76.80
2023-04-23T00:53:26.352Z,77.00
2023-04-23T00:55:54.872Z,77.00
2023-04-23T00:58:24.413Z,77.40
2023-04-23T01:00:53.030Z,77.60
2023-04-23T01:03:24.179Z,77.40
2023-04-23T01:05:53.043Z,77.60
2023-04-23T01:08:23.823Z,77.50
2023-04-23T01:10:53.331Z,77.60
2023-04-23T01:13:22.352Z,77.80
2023-04-23T01:15:52.068Z,77.70
2023-04-23T01:18:20.175Z,78.10
2023-04-23T01:20:48.501Z,77.80
2023-04-23T01:23:18.396Z,77.90
2023-04-23T01:25:46.761Z,78.20
2023-04-23T01:28:15.046Z,77.90
2023-04-23T01:30:44.714Z,78.20
2023-04-23T01:33:13.224Z,78.30
2023-04-23T01:35:42.401Z,78.40
2023-04-23T01:38:12.639Z,78.40
2023-04-23T01:40:42.229Z,78.60
2023-04-23T01:43:11.051Z,78.40
2023-04-23T01:45:39.237Z,78.30
2023-04-23T01:48:07.452Z,78.20
2023-04-23T01:50:36.196Z,78.10
2023-04-23T01:53:04.287Z,78.10
2023-04-23T01:55:33.968Z,78.00
2023-04-23T01:58:03.539Z,78.20
2023-04-23T02:00:31.635Z,78.20
2023-04-23T02:02:59.864Z,77.90
2023-04-23T02:05:30.786Z,77.90
2023-04-23T02:07:58.933Z,77.90
2023-04-23T02:10:27.113Z,77.90
2023-04-23T02:12:55.417Z,77.90
2023-04-23T02:15:24.908Z,77.80
2023-04-23T02:17:53.311Z,77.90
2023-04-23T02:20:22.563Z,77.80
2023-04-23T02:22:51.573Z,77.80
2023-04-23T02:25:21.884Z,77.50
2023-04-23T02:27:50.620Z,77.50
2023-04-23T02:30:18.730Z,77.10
2023-04-23T02:32:48.266Z,77.10
2023-04-23T02:35:16.404Z,77.40
2023-04-23T02:37:44.559Z,77.10
2023-04-23T02:40:13.416Z,77.10
2023-04-23T02:42:43.882Z,77.10
2023-04-23T02:45:12.800Z,77.20
2023-04-23T02:47:41.024Z,77.20
2023-04-23T02:50:11.364Z,77.20
2023-04-23T02:52:39.496Z,77.20
2023-04-23T02:55:09.448Z,77.10
2023-04-23T02:57:37.619Z,77.10
2023-04-23T03:00:08.355Z,77.00
2023-04-23T03:02:36.684Z,77.00
2023-04-23T03:05:06.041Z,77.00
2023-04-23T03:07:35.522Z,77.10
2023-04-23T03:10:03.663Z,77.40
2023-04-23T03:12:31.741Z,77.00
2023-04-23T03:14:59.865Z,77.10
2023-04-23T03:17:27.975Z,77.10
2023-04-23T03:19:56.065Z,77.20
2023-04-23T03:22:24.188Z,77.30
2023-04-23T03:24:53.632Z,77.30
2023-04-23T03:27:21.720Z,77.50
2023-04-23T03:29:49.789Z,77.40
2023-04-23T03:32:17.875Z,77.30
2023-04-23T03:34:45.976Z,77.40
2023-04-23T03:37:14.814Z,77.40
2023-04-23T03:39:42.896Z,77.50
2023-04-23T03:42:12.363Z,77.60
2023-04-23T03:44:40.706Z,77.90
2023-04-23T03:47:09.017Z,77.80
2023-04-23T03:49:38.156Z,78.00
2023-04-23T03:52:06.232Z,78.10
2023-04-23T03:54:34.353Z,78.10
2023-04-23T03:57:02.598Z,78.30
2023-04-23T03:59:32.076Z,78.40
2023-04-23T04:02:00.156Z,78.60
2023-04-23T04:04:28.568Z,78.40
2023-04-23T04:06:57.057Z,78.40
2023-04-23T04:09:25.140Z,78.50
2023-04-23T04:11:54.199Z,78.70
2023-04-23T04:14:22.781Z,78.90
2023-04-23T04:16:52.239Z,79.10
2023-04-23T04:19:21.181Z,79.00
2023-04-23T04:21:49.261Z,78.70
2023-04-23T04:24:17.369Z,78.80
2023-04-23T04:26:45.563Z,78.80
2023-04-23T04:29:13.675Z,78.80
2023-04-23T04:31:41.835Z,78.70
2023-04-23T04:34:14.221Z,78.70
2023-04-23T04:36:42.718Z,78.80
2023-04-23T04:39:10.917Z,78.60
2023-04-23T04:41:39.002Z,78.50
2023-04-23T04:44:07.287Z,78.50
2023-04-23T04:46:40.673Z,78.30
2023-04-23T04:49:10.919Z,78.50
2023-04-23T04:51:39.638Z,78.60
2023-04-23T04:54:08.552Z,78.60
2023-04-23T04:56:36.789Z,79.00
2023-04-23T04:59:05.095Z,78.90
2023-04-23T05:01:34.476Z,79.00
2023-04-23T05:04:02.754Z,79.10
2023-04-23T05:06:33.020Z,79.10
2023-04-23T05:09:01.113Z,79.20
2023-04-23T05:11:29.199Z,79.40
2023-04-23T05:13:58.475Z,79.50
2023-04-23T05:16:26.600Z,79.70
2023-04-23T05:18:54.722Z,79.80
2023-04-23T05:21:23.034Z,79.80
2023-04-23T05:23:52.507Z,79.90
2023-04-23T05:26:20.753Z,80.00
2023-04-23T05:28:48.999Z,80.00
2023-04-23T05:31:17.121Z,80.00
2023-04-23T05:33:50.547Z,80.10
2023-04-23T05:36:19.337Z,80.90
2023-04-23T05:38:47.810Z,80.10
2023-04-23T05:41:17.337Z,80.00
2023-04-23T05:43:45.440Z,80.20
2023-04-23T05:46:13.539Z,80.00
2023-04-23T05:48:41.670Z,80.20
2023-04-23T05:51:09.801Z,80.10
2023-04-23T05:53:37.886Z,80.10
2023-04-23T05:56:06.354Z,80.20
2023-04-23T05:58:36.004Z,80.20
2023-04-23T06:01:04.089Z,80.30
2023-04-23T06:03:32.731Z,80.10
2023-04-23T06:06:01.186Z,80.30
2023-04-23T06:08:29.409Z,80.10
2023-04-23T06:10:57.571Z,80.00
2023-04-23T06:13:26.580Z,79.90
2023-04-23T06:15:56.075Z,79.80
2023-04-23T06:18:24.412Z,79.70
2023-04-23T06:20:52.530Z,79.50
2023-04-23T06:23:20.631Z,79.40
2023-04-23T06:25:48.673Z,79.40
2023-04-23T06:28:16.946Z,79.40
2023-04-23T06:30:45.077Z,79.60
2023-04-23T06:33:14.692Z,79.40
2023-04-23T06:35:42.771Z,79.20
2023-04-23T06:38:10.886Z,79.00
2023-04-23T06:40:39.000Z,78.80
2023-04-23T06:43:08.004Z,78.70
2023-04-23T06:45:36.078Z,78.70
2023-04-23T06:48:04.203Z,78.70
2023-04-23T06:50:33.687Z,79.50
2023-04-23T06:53:01.764Z,78.80
2023-04-23T06:55:29.871Z,78.50
2023-04-23T06:57:58.107Z,78.40
2023-04-23T07:00:26.925Z,78.40
2023-04-23T07:02:55.089Z,78.50
2023-04-23T07:05:23.390Z,78.50
2023-04-23T07:07:53.416Z,78.40
2023-04-23T07:10:21.687Z,78.50
2023-04-23T07:12:49.858Z,78.40
2023-04-23T07:15:17.999Z,78.50
2023-04-23T07:17:46.262Z,78.20
2023-04-23T07:20:14.434Z,78.10
2023-04-23T07:22:42.545Z,77.80
2023-04-23T07:25:12.084Z,77.80
2023-04-23T07:27:40.183Z,77.80
2023-04-23T07:30:09.430Z,77.60
2023-04-23T07:32:37.680Z,77.60
2023-04-23T07:35:06.541Z,77.50
2023-04-23T07:37:34.622Z,77.30
2023-04-23T07:40:02.764Z,77.10
2023-04-23T07:42:32.291Z,76.70
2023-04-23T07:45:00.538Z,76.60
2023-04-23T07:47:28.741Z,76.40
2023-04-23T07:49:56.804Z,76.20
2023-04-23T07:52:24.893Z,75.70
2023-04-23T07:54:53.000Z,75.10
2023-04-23T07:57:21.303Z,75.30
2023-04-23T07:59:50.806Z,75.20
2023-04-23T08:02:23.702Z,74.40
2023-04-23T08:04:52.147Z,74.10
2023-04-23T08:07:20.492Z,73.70
2023-04-23T08:09:49.295Z,73.40
2023-04-23T08:12:18.073Z,73.20
2023-04-23T08:14:47.373Z,72.90
2023-04-23T08:17:16.901Z,72.50
2023-04-23T08:19:44.982Z,71.90
2023-04-23T08:22:13.340Z,71.80
2023-04-23T08:24:41.442Z,71.60
2023-04-23T08:27:09.512Z,72.10
2023-04-23T08:29:37.625Z,71.70
2023-04-23T08:32:05.826Z,71.70
2023-04-23T08:34:35.943Z,71.60
2023-04-23T08:37:04.572Z,71.70
2023-04-23T08:39:33.068Z,71.30
2023-04-23T08:42:06.699Z,71.00
2023-04-23T08:44:37.411Z,70.40
2023-04-23T08:47:06.703Z,71.20
2023-04-23T08:49:36.392Z,70.70
2023-04-23T08:52:16.237Z,70.40
2023-04-23T08:54:49.165Z,69.80
2023-04-23T08:57:18.789Z,69.70
2023-04-23T08:59:47.820Z,69.60
2023-04-23T09:02:17.955Z,70.50
2023-04-23T09:04:50.862Z,69.60
2023-04-23T09:07:20.181Z,68.70
2023-04-23T09:09:48.622Z,68.20
2023-04-23T09:12:16.753Z,67.80
2023-04-23T09:14:45.592Z,68.30
2023-04-23T09:17:13.799Z,68.00
2023-04-23T09:19:42.937Z,67.10
2023-04-23T09:22:13.102Z,66.00
2023-04-23T09:24:44.185Z,65.90
2023-04-23T09:27:12.298Z,65.80
2023-04-23T09:29:40.572Z,65.70
2023-04-23T09:32:10.301Z,65.80
2023-04-23T09:34:38.973Z,65.70
2023-04-23T09:37:11.040Z,66.00
2023-04-23T09:39:41.170Z,66.40
2023-04-23T09:42:11.253Z,66.70
2023-04-23T09:44:39.342Z,67.10
2023-04-23T09:47:09.745Z,68.10
2023-04-23T09:49:47.906Z,68.90
2023-04-23T09:52:16.156Z,69.90
2023-04-23T09:54:46.467Z,70.00
2023-04-23T09:57:14.926Z,70.40
2023-04-23T09:59:48.911Z,70.60
2023-04-23T10:02:21.250Z,70.80
2023-04-23T10:04:58.621Z,71.20
2023-04-23T10:07:29.404Z,72.30
2023-04-23T10:09:59.092Z,73.80
2023-04-23T10:12:46.593Z,72.90
2023-04-23T10:15:15.812Z,73.40
2023-04-23T10:17:44.085Z,71.60
2023-04-23T10:20:13.535Z,70.10
2023-04-23T10:22:45.260Z,69.10
2023-04-23T10:25:15.052Z,67.90
2023-04-23T10:27:53.064Z,66.60
2023-04-23T10:30:22.723Z,67.00
2023-04-23T10:32:51.668Z,67.10
2023-04-23T10:35:19.829Z,66.80
2023-04-23T10:37:49.589Z,67.20
2023-04-23T10:40:24.787Z,66.40
2023-04-23T10:42:53.149Z,64.00
2023-04-23T10:45:25.555Z,63.70
2023-04-23T10:47:56.400Z,63.00
2023-04-23T10:50:26.704Z,61.80
2023-04-23T10:52:57.108Z,60.20
2023-04-23T10:55:28.891Z,59.50
2023-04-23T10:58:01.152Z,58.40
2023-04-23T11:00:31.650Z,57.70
2023-04-23T11:02:59.904Z,57.50
2023-04-23T11:05:29.311Z,57.10
2023-04-23T11:08:18.187Z,57.20
2023-04-23T11:10:57.605Z,56.60
2023-04-23T11:13:27.080Z,56.40
2023-04-23T11:16:14.852Z,56.90
2023-04-23T11:18:59.817Z,56.10
2023-04-23T11:21:58.831Z,56.10
2023-04-23T11:24:28.599Z,56.80
2023-04-23T11:26:58.839Z,57.10
2023-04-23T11:29:28.706Z,57.00
2023-04-23T11:32:03.117Z,57.20
2023-04-23T11:34:32.243Z,57.10
2023-04-23T11:37:01.376Z,56.90
2023-04-23T11:39:29.549Z,56.60
2023-04-23T11:42:03.057Z,57.20
2023-04-23T11:44:31.784Z,57.40
2023-04-23T11:47:02.485Z,57.30
2023-04-23T11:49:30.794Z,57.60
2023-04-23T11:52:01.825Z,58.00
2023-04-23T11:54:30.721Z,58.20
2023-04-23T11:57:00.383Z,58.00
2023-04-23T11:59:28.985Z,58.30
2023-04-23T12:01:58.767Z,57.70
2023-04-23T12:04:28.595Z,57.70
2023-04-23T12:06:58.501Z,57.60
2023-04-23T12:09:28.035Z,57.70
2023-04-23T12:11:58.165Z,57.50
2023-04-23T12:14:33.189Z,57.60
2023-04-23T12:17:10.939Z,56.90
2023-04-23T12:19:40.662Z,56.30
2023-04-23T12:22:09.038Z,56.30
2023-04-23T12:24:48.437Z,55.90
2023-04-23T12:27:20.363Z,55.30
2023-04-23T12:29:50.898Z,55.40
2023-04-23T12:32:22.871Z,55.50
2023-04-23T12:34:54.448Z,55.50
2023-04-23T12:37:25.584Z,55.10
2023-04-23T12:39:55.483Z,55.20
2023-04-23T12:42:23.830Z,55.00
2023-04-23T12:44:55.706Z,55.00
2023-04-23T12:47:24.146Z,54.90
2023-04-23T12:49:53.468Z,55.50
2023-04-23T12:52:22.061Z,55.20
2023-04-23T12:54:52.231Z,55.60
2023-04-23T12:57:23.284Z,55.40
2023-04-23T12:59:54.785Z,55.60
2023-04-23T13:02:24.044Z,55.00
2023-04-23T13:04:54.532Z,54.90
2023-04-23T13:07:22.753Z,54.50
2023-04-23T13:09:50.836Z,54.50
2023-04-23T13:12:18.933Z,54.80
2023-04-23T13:14:47.035Z,54.40
2023-04-23T13:17:16.461Z,54.20
2023-04-23T13:19:44.936Z,53.00
2023-04-23T13:22:13.075Z,52.60
2023-04-23T13:24:41.257Z,52.70
2023-04-23T13:27:09.425Z,52.80
2023-04-23T13:29:37.599Z,52.70
2023-04-23T13:32:05.812Z,52.60
2023-04-23T13:34:35.789Z,52.50
2023-04-23T13:37:06.338Z,50.70
2023-04-23T13:39:34.427Z,49.90
2023-04-23T13:42:09.454Z,49.50
2023-04-23T13:44:38.297Z,49.30
2023-04-23T13:47:06.564Z,48.40
2023-04-23T13:49:36.081Z,47.70
2023-04-23T13:52:06.769Z,47.70
2023-04-23T13:54:36.181Z,47.20
2023-04-23T13:57:04.507Z,47.20
2023-04-23T13:59:32.608Z,47.10
2023-04-23T14:02:00.933Z,47.20
2023-04-23T14:04:29.058Z,46.60
2023-04-23T14:06:58.597Z,46.50
2023-04-23T14:09:26.701Z,46.10
2023-04-23T14:11:54.875Z,46.50
2023-04-23T14:14:23.019Z,47.00
2023-04-23T14:16:51.117Z,47.20
2023-04-23T14:19:19.171Z,47.60
2023-04-23T14:21:47.288Z,47.80
2023-04-23T14:24:23.840Z,48.10
2023-04-23T14:26:51.969Z,47.60
2023-04-23T14:29:30.112Z,48.30
2023-04-23T14:31:58.221Z,48.40
2023-04-23T14:34:26.439Z,48.10
2023-04-23T14:36:54.845Z,47.90
2023-04-23T14:39:25.863Z,48.30
2023-04-23T14:41:54.217Z,47.60
2023-04-23T14:44:23.375Z,47.90
2023-04-23T14:46:51.585Z,47.70
2023-04-23T14:49:20.845Z,46.90
2023-04-23T14:51:50.779Z,46.90
2023-04-23T14:54:19.009Z,46.90
2023-04-23T14:56:48.500Z,46.40
2023-04-23T14:59:16.590Z,45.70
2023-04-23T15:01:45.124Z,46.00
2023-04-23T15:04:13.506Z,46.00
2023-04-23T15:06:41.714Z,45.80
2023-04-23T15:09:10.206Z,45.90
2023-04-23T15:11:39.049Z,46.10
2023-04-23T15:14:19.102Z,46.10
2023-04-23T15:16:49.801Z,46.10
2023-04-23T15:19:19.424Z,46.30
2023-04-23T15:21:47.700Z,45.90
2023-04-23T15:24:16.132Z,46.20
2023-04-23T15:26:45.815Z,45.70
2023-04-23T15:29:15.677Z,45.90
2023-04-23T15:31:43.842Z,45.20
2023-04-23T15:34:12.249Z,45.50
2023-04-23T15:36:40.601Z,46.20
2023-04-23T15:39:09.809Z,45.40
2023-04-23T15:41:40.738Z,44.80
2023-04-23T15:44:12.364Z,44.40
2023-04-23T15:46:41.978Z,44.90
2023-04-23T15:49:10.060Z,45.20
2023-04-23T15:51:38.333Z,45.50
2023-04-23T15:54:08.463Z,45.70
2023-04-23T15:56:37.630Z,45.80
2023-04-23T15:59:06.128Z,46.00
2023-04-23T16:01:34.358Z,46.00
2023-04-23T16:06:35.036Z,46.00
2023-04-23T16:09:06.699Z,45.90
2023-04-23T16:11:35.689Z,45.90
2023-04-23T16:14:04.565Z,45.90
2023-04-23T16:16:32.803Z,46.20
2023-04-23T16:19:01.921Z,46.40
2023-04-23T16:21:32.085Z,46.60
2023-04-23T16:24:00.390Z,46.70
2023-04-23T16:26:29.700Z,46.60
2023-04-23T16:31:29.016Z,46.80
2023-04-23T16:33:57.546Z,46.90
2023-04-23T16:36:25.755Z,47.10
2023-04-23T16:38:55.348Z,47.10
2023-04-23T16:41:23.445Z,46.80
2023-04-23T16:43:51.601Z,46.70
2023-04-23T16:46:19.704Z,46.80
2023-04-23T16:48:47.837Z,46.90
2023-04-23T16:51:16.065Z,46.90
2023-04-23T16:53:44.213Z,47.10
2023-04-23T16:56:13.890Z,47.10
2023-04-23T16:58:42.049Z,47.10
2023-04-23T17:01:10.897Z,47.10
2023-04-23T17:03:39.401Z,47.00
2023-04-23T17:06:12.190Z,46.60
2023-04-23T17:08:40.823Z,46.80
2023-04-23T17:11:09.314Z,47.20
2023-04-23T17:13:39.466Z,47.20
2023-04-23T17:16:07.578Z,47.00
2023-04-23T17:18:35.726Z,47.10
2023-04-23T17:21:03.986Z,47.20
2023-04-23T17:23:32.189Z,47.30
2023-04-23T17:26:00.314Z,47.30
2023-04-23T17:28:28.450Z,47.60
2023-04-23T17:30:57.880Z,47.50
2023-04-23T17:33:26.162Z,48.30
2023-04-23T17:35:55.307Z,49.70
2023-04-23T17:38:24.703Z,50.30
2023-04-23T17:40:54.104Z,51.40
2023-04-23T17:43:22.665Z,52.80
2023-04-23T17:45:50.747Z,53.60
2023-04-23T17:48:22.940Z,54.50
2023-04-23T17:50:51.269Z,56.00
2023-04-23T17:53:19.643Z,56.30
2023-04-23T17:55:47.757Z,57.20
2023-04-23T17:58:15.928Z,58.00
2023-04-23T18:00:44.359Z,58.90
2023-04-23T18:03:16.706Z,59.90
2023-04-23T18:05:46.353Z,60.80
2023-04-23T18:08:16.264Z,62.00
2023-04-23T18:10:46.202Z,61.70
2023-04-23T18:13:14.772Z,63.10
2023-04-23T18:15:43.423Z,63.30
2023-04-23T18:18:11.557Z,63.70
2023-04-23T18:20:40.234Z,64.20
2023-04-23T18:23:10.279Z,64.70
2023-04-23T18:25:38.848Z,65.30
2023-04-23T18:28:06.984Z,65.50
2023-04-23T18:30:35.757Z,65.70
2023-04-23T18:33:12.702Z,65.90
2023-04-23T18:35:43.914Z,67.30
2023-04-23T18:38:25.428Z,66.80
2023-04-23T18:40:53.533Z,68.10
2023-04-23T18:43:21.598Z,66.40
2023-04-23T18:45:49.751Z,66.50
2023-04-23T18:48:42.193Z,66.80
2023-04-23T18:51:23.010Z,68.20
2023-04-23T18:53:52.489Z,68.70
2023-04-23T18:56:20.753Z,67.50
2023-04-23T18:58:48.848Z,67.10
2023-04-23T19:01:17.023Z,66.60
2023-04-23T19:03:45.331Z,66.60
2023-04-23T19:06:13.578Z,66.70
2023-04-23T19:08:42.466Z,67.30
2023-04-23T19:11:12.267Z,66.90
2023-04-23T19:13:40.509Z,66.80
2023-04-23T19:16:09.585Z,66.60
2023-04-23T19:18:38.027Z,66.80
2023-04-23T19:21:06.154Z,66.70
2023-04-23T19:23:34.327Z,66.60
2023-04-23T19:26:03.247Z,66.50
2023-04-23T19:28:32.857Z,66.60
2023-04-23T19:31:00.928Z,66.90
2023-04-23T19:33:29.014Z,66.60
2023-04-23T19:35:57.079Z,66.70
2023-04-23T19:38:25.157Z,66.90
2023-04-23T19:40:53.249Z,67.10
2023-04-23T19:43:21.375Z,67.20
2023-04-23T19:45:50.846Z,67.40
2023-04-23T19:48:18.956Z,67.60
2023-04-23T19:50:47.831Z,67.50
2023-04-23T19:53:16.058Z,67.70
2023-04-23T19:55:44.137Z,67.90
2023-04-23T19:58:12.851Z,68.00
2023-04-23T20:00:41.911Z,68.20
2023-04-23T20:03:11.678Z,68.50
2023-04-23T20:05:42.288Z,68.90
2023-04-23T20:08:15.566Z,68.90
2023-04-23T20:10:43.905Z,68.90
2023-04-23T20:13:11.976Z,68.90
2023-04-23T20:15:40.302Z,69.00
2023-04-23T20:18:08.450Z,69.10
2023-04-23T20:20:39.923Z,69.20
2023-04-23T20:23:08.026Z,69.60
2023-04-23T20:25:37.495Z,69.40
2023-04-23T20:28:06.524Z,69.70
2023-04-23T20:30:34.803Z,70.00
2023-04-23T20:33:03.338Z,70.00
2023-04-23T20:35:31.923Z,70.10
2023-04-23T20:38:02.005Z,70.20
2023-04-23T20:40:34.331Z,70.40
2023-04-23T20:43:04.518Z,70.30
2023-04-23T20:45:34.477Z,70.40
2023-04-23T20:48:03.674Z,70.50
2023-04-23T20:50:32.220Z,70.50
2023-04-23T20:53:01.787Z,70.70
2023-04-23T20:55:29.931Z,71.20
2023-04-23T20:57:58.040Z,71.10
2023-04-23T21:00:26.161Z,71.20
2023-04-23T21:02:54.586Z,71.30
2023-04-23T21:05:22.874Z,71.20
2023-04-23T21:07:50.986Z,71.00
2023-04-23T21:10:22.151Z,70.70
2023-04-23T21:12:50.907Z,70.80
2023-04-23T21:15:19.376Z,70.70
2023-04-23T21:17:47.798Z,70.70
2023-04-23T21:20:15.895Z,70.70
2023-04-23T21:22:43.973Z,70.50
2023-04-23T21:25:12.054Z,70.40
2023-04-23T21:27:45.996Z,70.50
2023-04-23T21:30:22.845Z,70.80
2023-04-23T21:32:52.263Z,71.00
2023-04-23T21:35:20.514Z,70.60
2023-04-23T21:37:48.630Z,70.50
2023-04-23T21:40:16.704Z,70.60
2023-04-23T21:42:47.580Z,70.60
2023-04-23T21:45:15.683Z,70.80
2023-04-23T21:47:43.883Z,70.70
2023-04-23T21:50:12.735Z,70.60
2023-04-23T21:52:44.061Z,70.60
2023-04-23T21:55:13.453Z,70.90
2023-04-23T21:57:41.620Z,70.60
2023-04-23T22:00:14.063Z,70.50
2023-04-23T22:02:46.301Z,70.50
2023-04-23T22:05:16.997Z,70.30
2023-04-23T22:07:45.302Z,70.30
2023-04-23T22:10:17.580Z,70.20
2023-04-23T22:12:47.396Z,70.40
2023-04-23T22:15:19.336Z,70.30
2023-04-23T22:17:50.688Z,70.50
2023-04-23T22:20:23.757Z,70.50
2023-04-23T22:22:52.038Z,70.40
2023-04-23T22:25:20.536Z,70.30
2023-04-23T22:27:48.899Z,70.40
2023-04-23T22:30:18.455Z,70.40
2023-04-23T22:32:46.911Z,70.60
2023-04-23T22:35:15.260Z,70.50
2023-04-23T22:37:43.448Z,70.70
2023-04-23T22:40:12.847Z,70.70
2023-04-23T22:42:40.945Z,70.80
2023-04-23T22:45:09.581Z,70.90
2023-04-23T22:47:39.252Z,71.00
2023-04-23T22:50:09.056Z,71.20
2023-04-23T22:52:37.800Z,71.30
2023-04-23T22:55:06.814Z,71.20
2023-04-23T22:57:35.355Z,71.60
2023-04-23T23:00:04.891Z,71.80
2023-04-23T23:02:33.055Z,72.00
2023-04-23T23:05:02.798Z,72.20
2023-04-23T23:07:30.943Z,72.60
2023-04-23T23:09:59.005Z,72.40
2023-04-23T23:12:27.087Z,72.40
2023-04-23T23:14:55.137Z,72.50
2023-04-23T23:17:23.209Z,72.60
2023-04-23T23:19:51.320Z,72.70
2023-04-23T23:22:20.826Z,72.90
2023-04-23T23:24:48.921Z,73.10
2023-04-23T23:27:17.025Z,73.10
2023-04-23T23:29:45.344Z,73.10
2023-04-23T23:32:13.620Z,73.20
2023-04-23T23:34:41.743Z,73.40
2023-04-23T23:37:09.804Z,73.70
2023-04-23T23:39:39.383Z,73.70
2023-04-23T23:42:07.513Z,73.90
2023-04-23T23:44:36.297Z,73.60
2023-04-23T23:47:04.501Z,73.70
2023-04-23T23:49:32.727Z,73.80
2023-04-23T23:52:00.916Z,73.80
2023-04-23T23:54:29.007Z,73.80
2023-04-23T23:56:58.446Z,74.00
2023-04-23T23:59:26.503Z,74.20
